createdAt,value
2018-07-15T00:01:28.055Z,5.80
2018-07-15T00:03:56.513Z,6.60
2018-07-15T00:06:24.990Z,6.70
2018-07-15T00:08:53.508Z,6.63
2018-07-15T00:11:22.017Z,7.00
2018-07-15T00:13:50.984Z,6.53
2018-07-15T00:16:19.494Z,6.57
2018-07-15T00:18:48.037Z,6.90
2018-07-15T00:21:16.716Z,5.93
2018-07-15T00:23:45.168Z,6.63
2018-07-15T00:26:13.633Z,6.23
2018-07-15T00:28:42.184Z,7.03
2018-07-15T00:31:10.673Z,6.57
2018-07-15T00:33:39.216Z,6.60
2018-07-15T00:36:07.645Z,6.20
2018-07-15T00:38:36.096Z,7.50
2018-07-15T00:41:04.549Z,6.30
2018-07-15T00:43:33.078Z,6.60
2018-07-15T00:46:01.505Z,6.40
2018-07-15T00:48:30.050Z,6.27
2018-07-15T00:50:59.164Z,6.90
2018-07-15T00:53:27.725Z,6.20
2018-07-15T00:55:56.220Z,6.13
2018-07-15T00:58:24.652Z,7.50
2018-07-15T01:00:58.441Z,7.10
2018-07-15T01:03:26.640Z,6.90
2018-07-15T01:05:55.084Z,6.90
2018-07-15T01:08:23.536Z,7.60
2018-07-15T01:10:51.996Z,7.63
2018-07-15T01:13:20.473Z,6.73
2018-07-15T01:15:48.943Z,7.43
2018-07-15T01:18:17.429Z,7.40
2018-07-15T01:20:45.964Z,7.40
2018-07-15T01:23:14.433Z,6.63
2018-07-15T01:25:42.913Z,7.30
2018-07-15T01:28:11.474Z,6.63
2018-07-15T01:30:39.950Z,6.90
2018-07-15T01:33:08.474Z,7.00
2018-07-15T01:35:36.941Z,6.73
2018-07-15T01:38:05.654Z,6.87
2018-07-15T01:40:34.105Z,5.90
2018-07-15T01:43:02.568Z,6.43
2018-07-15T01:45:31.040Z,6.90
2018-07-15T01:47:59.500Z,7.40
2018-07-15T01:50:28.976Z,6.30
2018-07-15T01:52:57.649Z,7.60
2018-07-15T01:55:26.090Z,6.83
2018-07-15T01:57:54.542Z,8.20
2018-07-15T02:00:23.108Z,6.83
2018-07-15T02:02:51.662Z,7.40
2018-07-15T02:05:20.093Z,7.37
2018-07-15T02:07:48.675Z,7.70
2018-07-15T02:10:17.121Z,7.17
2018-07-15T02:12:45.753Z,7.50
2018-07-15T02:15:15.248Z,7.33
2018-07-15T02:17:43.765Z,7.10
2018-07-15T02:20:12.309Z,6.63
2018-07-15T02:22:40.752Z,7.27
2018-07-15T02:25:09.194Z,7.03
2018-07-15T02:27:38.565Z,6.87
2018-07-15T02:30:07.093Z,7.30
2018-07-15T02:32:35.548Z,6.70
2018-07-15T02:35:04.096Z,7.03
2018-07-15T02:37:33.194Z,7.43
2018-07-15T02:40:01.683Z,6.33
2018-07-15T02:42:30.860Z,7.00
2018-07-15T02:44:59.324Z,7.87
2018-07-15T02:47:27.773Z,7.53
2018-07-15T02:49:56.245Z,7.30
2018-07-15T02:52:24.686Z,7.20
2018-07-15T04:19:52.145Z,8.70
2018-07-15T04:22:21.465Z,8.80
2018-07-15T04:24:49.892Z,8.83
2018-07-15T04:27:18.446Z,8.57
2018-07-15T04:29:47.014Z,9.50
2018-07-15T04:32:15.751Z,9.47
2018-07-15T04:34:44.193Z,8.83
2018-07-15T04:37:12.737Z,8.90
2018-07-15T04:39:41.208Z,10.07
2018-07-15T04:42:09.732Z,8.40
2018-07-15T04:44:38.193Z,8.43
2018-07-15T04:47:06.969Z,8.77
2018-07-15T04:49:36.182Z,9.60
2018-07-15T04:52:04.608Z,8.57
2018-07-15T04:54:33.085Z,9.20
2018-07-15T04:57:01.606Z,9.27
2018-07-15T04:59:30.814Z,10.40
2018-07-15T05:01:59.387Z,9.07
2018-07-15T05:04:27.913Z,9.23
2018-07-15T05:06:56.524Z,9.60
2018-07-15T05:09:25.115Z,9.17
2018-07-15T05:11:53.583Z,8.80
2018-07-15T05:14:22.088Z,8.17
2018-07-15T05:16:50.579Z,8.40
2018-07-15T05:19:18.989Z,10.07
2018-07-15T05:21:47.506Z,8.30
2018-07-15T05:24:16.164Z,9.27
2018-07-15T05:26:44.613Z,9.30
2018-07-15T05:29:13.381Z,8.30
2018-07-15T05:31:41.845Z,9.07
2018-07-15T05:34:10.295Z,8.37
2018-07-15T05:36:38.831Z,9.17
2018-07-15T05:39:07.068Z,8.90
2018-07-15T05:41:35.693Z,8.80
2018-07-15T05:44:04.253Z,8.50
2018-07-15T05:46:33.366Z,8.27
2018-07-15T05:49:01.884Z,9.57
2018-07-15T05:51:30.692Z,9.67
2018-07-15T05:53:59.332Z,9.73
2018-07-15T05:56:27.835Z,8.70
2018-07-15T05:58:56.530Z,9.07
2018-07-15T06:01:25.353Z,8.70
2018-07-15T06:03:53.889Z,9.00
2018-07-15T06:06:22.438Z,8.30
2018-07-15T06:08:51.641Z,8.37
2018-07-15T06:11:20.088Z,7.03
2018-07-15T06:13:48.843Z,8.63
2018-07-15T06:16:17.356Z,8.90
2018-07-15T06:18:45.834Z,9.03
2018-07-15T06:21:14.366Z,7.97
2018-07-15T06:23:42.869Z,7.57
2018-07-15T06:26:11.335Z,8.63
2018-07-15T06:28:39.758Z,8.10
2018-07-15T06:31:08.253Z,7.40
2018-07-15T06:33:36.798Z,7.87
2018-07-15T06:36:05.682Z,6.70
2018-07-15T06:38:34.145Z,7.23
2018-07-15T06:41:02.578Z,6.73
2018-07-15T06:43:31.001Z,6.83
2018-07-15T06:45:59.577Z,6.57
2018-07-15T06:48:28.034Z,7.47
2018-07-15T06:50:56.521Z,7.47
2018-07-15T06:53:24.969Z,6.83
2018-07-15T06:55:53.473Z,7.43
2018-07-15T06:58:21.913Z,6.50
2018-07-15T07:00:50.672Z,6.50
2018-07-15T07:03:19.198Z,7.30
2018-07-15T07:05:47.670Z,6.90
2018-07-15T07:08:16.113Z,6.47
2018-07-15T07:10:44.561Z,6.63
2018-07-15T07:13:13.047Z,6.70
2018-07-15T07:15:41.624Z,6.40
2018-07-15T07:18:10.294Z,6.43
2018-07-15T07:20:38.859Z,6.27
2018-07-15T07:23:07.238Z,5.53
2018-07-15T07:25:36.237Z,5.67
2018-07-15T07:28:04.747Z,5.93
2018-07-15T07:30:33.197Z,5.13
2018-07-15T07:33:01.693Z,5.07
2018-07-15T07:35:30.320Z,6.13
2018-07-15T07:37:58.755Z,5.27
2018-07-15T07:40:27.172Z,5.40
2018-07-15T07:42:55.680Z,4.87
2018-07-15T07:45:24.128Z,4.77
2018-07-15T07:47:53.297Z,4.40
2018-07-15T07:50:21.916Z,4.70
2018-07-15T07:52:50.568Z,4.50
2018-07-15T07:55:19.261Z,4.63
2018-07-15T07:57:47.822Z,4.63
2018-07-15T08:00:16.365Z,4.43
2018-07-15T08:02:44.877Z,4.60
2018-07-15T08:05:13.385Z,4.50
2018-07-15T08:07:42.063Z,4.20
2018-07-15T08:10:10.504Z,4.40
2018-07-15T08:12:39.047Z,4.57
2018-07-15T08:15:07.704Z,4.37
2018-07-15T08:17:37.110Z,4.30
2018-07-15T08:20:05.753Z,5.10
2018-07-15T08:22:34.644Z,4.23
2018-07-15T08:25:02.869Z,4.23
2018-07-15T08:27:31.456Z,4.27
2018-07-15T08:31:10.280Z,4.90
2018-07-15T08:33:38.905Z,4.40
2018-07-15T08:36:08.012Z,3.97
2018-07-15T08:38:36.502Z,3.83
2018-07-15T08:41:05.300Z,4.13
2018-07-15T08:43:34.448Z,4.40
2018-07-15T08:46:03.217Z,4.23
2018-07-15T08:48:31.980Z,4.80
2018-07-15T08:51:00.465Z,3.97
2018-07-15T08:53:28.960Z,3.87
2018-07-15T08:55:57.630Z,4.30
2018-07-15T08:58:26.157Z,4.27
2018-07-15T09:00:54.744Z,3.90
2018-07-15T09:03:23.407Z,4.00
2018-07-15T09:18:56.462Z,4.00
2018-07-15T09:21:25.006Z,3.80
2018-07-15T09:23:53.499Z,3.70
2018-07-15T09:26:22.015Z,3.30
2018-07-15T09:28:50.852Z,4.10
2018-07-15T09:31:19.273Z,4.03
2018-07-15T09:33:47.791Z,4.30
2018-07-15T09:36:16.244Z,4.23
2018-07-15T09:38:44.735Z,4.17
2018-07-15T09:41:13.198Z,4.83
2018-07-15T09:43:41.692Z,3.80
2018-07-15T09:46:10.140Z,9.60
2018-07-15T09:48:38.736Z,4.30
2018-07-15T09:51:07.207Z,10.60
2018-07-15T09:53:35.685Z,8.23
2018-07-15T09:56:04.161Z,5.23
2018-07-15T09:58:32.629Z,6.40
2018-07-15T10:01:01.171Z,7.07
2018-07-15T10:03:29.876Z,7.40
2018-07-15T10:05:58.374Z,7.33
2018-07-15T10:08:26.513Z,6.17
2018-07-15T10:10:55.015Z,6.50
2018-07-15T10:13:23.584Z,5.80
2018-07-15T10:15:52.113Z,4.87
2018-07-15T10:18:20.549Z,4.90
2018-07-15T10:20:49.030Z,5.90
2018-07-15T10:23:17.502Z,5.60
2018-07-15T10:25:46.094Z,5.53
2018-07-15T10:28:14.720Z,5.77
2018-07-15T10:30:43.200Z,6.03
2018-07-15T10:33:11.669Z,7.10
2018-07-15T10:35:40.200Z,5.80
2018-07-15T10:38:08.689Z,6.70
2018-07-15T10:40:37.150Z,6.70
2018-07-15T10:43:05.697Z,7.00
2018-07-15T10:45:34.170Z,6.63
2018-07-15T10:48:02.676Z,6.53
2018-07-15T10:50:31.173Z,6.40
2018-07-15T10:52:59.732Z,6.13
2018-07-15T10:55:28.264Z,5.90
2018-07-15T10:57:57.013Z,4.70
2018-07-15T11:00:25.686Z,5.83
2018-07-15T11:02:56.677Z,5.80
2018-07-15T11:05:29.447Z,5.33
2018-07-15T11:08:01.811Z,4.50
2018-07-15T11:10:37.641Z,5.40
2018-07-15T11:13:06.795Z,4.57
2018-07-15T11:15:37.359Z,5.00
2018-07-15T11:18:11.104Z,5.30
2018-07-15T11:20:43.393Z,5.10
2018-07-15T11:23:16.605Z,4.50
2018-07-15T11:25:48.631Z,4.77
2018-07-15T11:28:21.352Z,5.10
2018-07-15T11:30:54.423Z,5.10
2018-07-15T11:33:25.327Z,4.70
2018-07-15T11:35:59.251Z,4.73
2018-07-15T11:38:30.262Z,4.73
2018-07-15T11:41:01.612Z,4.10
2018-07-15T11:43:32.472Z,3.70
2018-07-15T11:46:05.542Z,4.13
2018-07-15T11:48:38.973Z,4.40
2018-07-15T11:51:10.933Z,4.23
2018-07-15T11:54:15.761Z,4.43
2018-07-15T11:56:54.459Z,3.80
2018-07-15T11:59:27.461Z,4.33
2018-07-15T12:02:00.341Z,4.70
2018-07-15T12:04:30.676Z,4.77
2018-07-15T12:07:03.693Z,4.63
2018-07-15T12:09:35.845Z,4.60
2018-07-15T12:12:06.587Z,5.27
2018-07-15T12:14:36.153Z,4.87
2018-07-15T12:17:08.938Z,5.07
2018-07-15T12:19:41.935Z,5.03
2018-07-15T12:22:21.581Z,4.40
2018-07-15T12:24:54.558Z,4.70
2018-07-15T12:27:29.673Z,4.73
2018-07-15T12:30:00.645Z,5.13
2018-07-15T12:32:33.938Z,5.07
2018-07-15T12:35:12.467Z,4.90
2018-07-15T12:37:44.443Z,5.03
2018-07-15T12:40:16.731Z,5.23
2018-07-15T12:42:47.937Z,5.10
2018-07-15T12:45:21.981Z,5.63
2018-07-15T12:47:51.649Z,6.37
2018-07-15T12:50:24.262Z,6.40
2018-07-15T12:52:54.077Z,6.60
2018-07-15T12:55:25.198Z,7.37
2018-07-15T12:57:56.322Z,6.63
2018-07-15T13:00:25.912Z,7.77
2018-07-15T13:02:56.845Z,7.63
2018-07-15T13:05:31.953Z,6.80
2018-07-15T13:08:07.901Z,7.00
2018-07-15T13:10:38.966Z,7.50
2018-07-15T13:13:14.551Z,7.43
2018-07-15T13:15:43.298Z,6.70
2018-07-15T13:18:15.636Z,6.83
2018-07-15T13:20:46.315Z,6.03
2018-07-15T13:23:19.113Z,5.23
2018-07-15T13:25:49.302Z,5.30
2018-07-15T13:28:19.743Z,5.50
2018-07-15T13:30:52.286Z,5.13
2018-07-15T13:33:24.596Z,5.83
2018-07-15T13:35:57.544Z,6.03
2018-07-15T13:38:28.083Z,6.20
2018-07-15T13:40:58.715Z,17.00
2018-07-15T13:43:32.519Z,5.70
2018-07-15T13:48:48.857Z,4.63
2018-07-15T13:51:22.308Z,6.63
2018-07-15T13:53:51.589Z,7.53
2018-07-15T13:56:22.768Z,8.77
2018-07-15T13:58:55.725Z,5.20
2018-07-15T14:01:27.690Z,4.30
2018-07-15T14:03:57.917Z,3.97
2018-07-15T14:06:27.474Z,4.80
2018-07-15T14:08:57.893Z,3.77
2018-07-15T14:11:33.558Z,4.07
2018-07-15T14:14:03.469Z,3.70
2018-07-15T14:16:36.416Z,3.60
2018-07-15T14:19:05.372Z,3.77
2018-07-15T14:21:36.764Z,4.40
2018-07-15T14:24:08.013Z,4.27
2018-07-15T14:26:43.033Z,4.00
2018-07-15T14:29:13.282Z,4.23
2018-07-15T14:31:42.787Z,3.80
2018-07-15T14:34:16.948Z,4.70
2018-07-15T14:36:46.562Z,4.83
2018-07-15T14:39:15.129Z,4.37
2018-07-15T14:41:43.593Z,5.90
2018-07-15T14:44:12.093Z,5.03
2018-07-15T14:46:40.695Z,4.20
2018-07-15T14:49:09.331Z,3.87
2018-07-15T14:51:37.923Z,3.90
2018-07-15T14:54:06.548Z,3.60
2018-07-15T14:56:35.117Z,2.90
2018-07-15T14:59:03.568Z,2.80
2018-07-15T15:01:32.539Z,2.57
2018-07-15T15:04:00.773Z,3.00
2018-07-15T15:06:29.325Z,2.60
2018-07-15T15:08:57.829Z,3.60
2018-07-15T15:11:26.348Z,2.80
2018-07-15T15:13:54.849Z,3.00
2018-07-15T15:16:23.347Z,3.13
2018-07-15T15:18:51.857Z,3.07
2018-07-15T15:21:20.354Z,2.77
2018-07-15T15:23:48.876Z,3.27
2018-07-15T15:26:17.050Z,2.60
2018-07-15T15:28:45.461Z,2.83
2018-07-15T15:31:14.064Z,2.60
2018-07-15T15:33:42.771Z,2.50
2018-07-15T15:36:11.241Z,2.87
2018-07-15T15:38:39.752Z,3.00
2018-07-15T15:41:08.396Z,3.43
2018-07-15T15:43:37.216Z,3.43
2018-07-15T15:46:05.681Z,3.10
2018-07-15T15:48:34.473Z,3.80
2018-07-15T15:51:03.200Z,3.30
2018-07-15T15:53:31.862Z,3.70
2018-07-15T15:56:00.365Z,3.67
2018-07-15T15:58:28.725Z,4.53
2018-07-15T16:00:57.324Z,4.23
2018-07-15T16:03:25.921Z,3.70
2018-07-15T16:05:55.667Z,2.70
2018-07-15T16:08:24.133Z,3.43
2018-07-15T16:10:52.608Z,3.90
2018-07-15T16:13:21.163Z,3.77
2018-07-15T16:15:49.656Z,3.37
2018-07-15T16:18:17.770Z,3.80
2018-07-15T16:20:47.532Z,4.37
2018-07-15T16:23:16.073Z,3.90
2018-07-15T16:25:45.145Z,4.10
2018-07-15T16:28:13.642Z,2.97
2018-07-15T16:30:42.189Z,3.80
2018-07-15T16:33:10.717Z,3.37
2018-07-15T16:35:40.463Z,4.20
2018-07-15T16:38:09.047Z,3.37
2018-07-15T16:40:37.281Z,3.63
2018-07-15T16:43:06.742Z,3.73
2018-07-15T16:45:35.184Z,3.40
2018-07-15T16:48:03.756Z,3.00
2018-07-15T16:50:32.725Z,3.33
2018-07-15T16:53:01.277Z,3.43
2018-07-15T16:55:29.834Z,3.00
2018-07-15T16:57:59.016Z,3.77
2018-07-15T17:00:27.539Z,3.53
2018-07-15T17:02:55.989Z,3.33
2018-07-15T17:05:24.518Z,3.70
2018-07-15T17:07:52.985Z,3.50
2018-07-15T17:10:21.453Z,3.17
2018-07-15T17:12:50.060Z,3.60
2018-07-15T17:15:18.706Z,3.43
2018-07-15T17:17:47.254Z,3.43
2018-07-15T17:20:15.881Z,3.60
2018-07-15T17:22:44.461Z,3.67
2018-07-15T17:25:13.039Z,3.50
2018-07-15T17:27:41.575Z,3.50
2018-07-15T17:30:10.103Z,3.37
2018-07-15T17:32:38.713Z,3.60
2018-07-15T17:35:07.537Z,3.47
2018-07-15T17:37:36.180Z,4.30
2018-07-15T17:40:04.993Z,3.70
2018-07-15T17:42:34.168Z,4.10
2018-07-15T17:45:02.761Z,3.70
2018-07-15T17:47:31.262Z,3.90
2018-07-15T17:49:59.813Z,3.07
2018-07-15T17:52:28.289Z,4.20
2018-07-15T17:54:56.840Z,4.00
2018-07-15T17:57:25.322Z,3.53
2018-07-15T17:59:53.810Z,3.93
2018-07-15T18:02:22.313Z,4.30
2018-07-15T18:04:50.871Z,4.50
2018-07-15T18:07:19.598Z,5.20
2018-07-15T18:09:48.190Z,4.83
2018-07-15T18:12:16.887Z,4.33
2018-07-15T18:14:45.356Z,3.70
2018-07-15T18:17:14.789Z,4.27
2018-07-15T18:19:43.303Z,4.00
2018-07-15T18:22:11.839Z,4.67
2018-07-15T18:24:41.120Z,4.10
2018-07-15T18:27:10.550Z,4.50
2018-07-15T18:29:39.169Z,4.60
2018-07-15T18:32:07.971Z,7.67
2018-07-15T18:34:36.800Z,4.87
2018-07-15T18:37:06.974Z,4.30
2018-07-15T18:39:36.482Z,5.00
2018-07-15T18:42:05.365Z,4.10
2018-07-15T18:44:34.461Z,4.10
2018-07-15T18:47:03.762Z,4.00
2018-07-15T18:49:32.755Z,4.30
2018-07-15T18:52:01.562Z,4.30
2018-07-15T18:54:30.122Z,4.00
2018-07-15T18:56:58.630Z,3.93
2018-07-15T18:59:28.208Z,4.47
2018-07-15T19:01:56.718Z,3.87
2018-07-15T19:04:25.353Z,4.30
2018-07-15T19:06:53.821Z,4.10
2018-07-15T19:09:22.336Z,3.33
2018-07-15T19:11:50.774Z,4.00
2018-07-15T19:14:19.285Z,3.73
2018-07-15T19:16:47.749Z,3.87
2018-07-15T19:19:16.314Z,3.33
2018-07-15T19:21:44.913Z,3.83
2018-07-15T19:24:13.506Z,3.20
2018-07-15T19:26:41.962Z,3.50
2018-07-15T19:29:10.484Z,3.23
2018-07-15T19:31:39.097Z,3.37
2018-07-15T19:34:07.623Z,3.67
2018-07-15T19:36:36.137Z,4.87
2018-07-15T19:39:05.122Z,3.77
2018-07-15T19:41:33.564Z,3.37
2018-07-15T19:44:02.174Z,3.17
2018-07-15T19:46:30.676Z,3.33
2018-07-15T19:48:59.170Z,3.63
2018-07-15T19:51:27.622Z,4.47
2018-07-15T19:53:56.092Z,4.40
2018-07-15T19:56:24.675Z,3.80
2018-07-15T19:58:53.235Z,3.93
2018-07-15T20:01:21.839Z,3.90
2018-07-15T20:03:50.255Z,3.90
2018-07-15T20:06:18.728Z,3.90
2018-07-15T20:08:47.261Z,4.20
2018-07-15T20:11:15.901Z,5.20
2018-07-15T20:13:44.074Z,4.47
2018-07-15T20:16:12.600Z,4.87
2018-07-15T20:18:41.107Z,4.90
2018-07-15T20:21:09.733Z,5.57
2018-07-15T20:23:38.256Z,4.50
2018-07-15T20:26:06.721Z,4.77
2018-07-15T20:28:35.174Z,3.90
2018-07-15T20:31:03.732Z,3.67
2018-07-15T20:33:32.428Z,3.93
2018-07-15T20:36:00.874Z,4.60
2018-07-15T20:38:29.395Z,5.27
2018-07-15T20:40:58.582Z,4.60
2018-07-15T20:43:27.137Z,4.47
2018-07-15T20:45:55.644Z,5.07
2018-07-15T20:48:24.092Z,4.60
2018-07-15T20:50:52.564Z,4.13
2018-07-15T20:53:21.032Z,4.57
2018-07-15T20:55:49.506Z,4.50
2018-07-15T20:58:17.986Z,4.90
2018-07-15T21:00:46.434Z,4.60
2018-07-15T21:03:15.639Z,4.80
2018-07-15T21:05:44.146Z,5.23
2018-07-15T21:08:12.312Z,4.37
2018-07-15T21:10:40.824Z,4.40
2018-07-15T21:13:09.862Z,5.60
2018-07-15T21:15:38.353Z,4.57
2018-07-15T21:18:06.817Z,4.00
2018-07-15T21:20:35.299Z,4.60
2018-07-15T21:23:03.809Z,4.73
2018-07-15T21:25:33.077Z,5.30
2018-07-15T21:28:01.609Z,4.43
2018-07-15T21:30:30.105Z,4.30
2018-07-15T21:32:58.547Z,5.90
2018-07-15T21:35:27.025Z,5.00
2018-07-15T21:37:55.565Z,4.60
2018-07-15T21:40:24.033Z,4.90
2018-07-15T21:42:52.609Z,5.67
2018-07-15T21:45:21.061Z,4.73
2018-07-15T21:47:49.733Z,4.83
2018-07-15T21:50:18.248Z,4.40
2018-07-15T21:52:46.997Z,5.30
2018-07-15T21:55:15.597Z,4.30
2018-07-15T21:57:44.044Z,4.70
2018-07-15T22:00:12.603Z,4.30
2018-07-15T22:02:41.093Z,4.53
2018-07-15T22:05:10.214Z,4.83
2018-07-15T22:07:49.924Z,4.20
2018-07-15T22:10:51.553Z,4.63
2018-07-15T22:13:19.992Z,4.70
2018-07-15T22:15:48.569Z,3.60
2018-07-15T22:18:17.104Z,3.80
2018-07-15T22:20:45.605Z,4.00
2018-07-15T22:23:14.019Z,4.47
2018-07-15T22:25:42.510Z,4.37
2018-07-15T22:28:11.074Z,3.30
2018-07-15T22:30:39.568Z,4.37
2018-07-15T22:33:08.025Z,3.80
2018-07-15T22:35:36.504Z,4.37
2018-07-15T22:38:05.013Z,4.73
2018-07-15T22:40:33.460Z,4.20
2018-07-15T22:43:01.948Z,4.67
2018-07-15T22:45:30.469Z,4.33
2018-07-15T22:47:59.060Z,4.83
2018-07-15T22:50:27.701Z,5.30
2018-07-15T22:52:56.259Z,5.23
2018-07-15T22:55:24.757Z,4.90
2018-07-15T22:57:53.534Z,4.83
2018-07-15T23:00:22.061Z,5.40
2018-07-15T23:02:50.611Z,5.37
2018-07-15T23:05:59.985Z,4.90
2018-07-15T23:08:30.829Z,5.10
2018-07-15T23:10:59.368Z,4.57
2018-07-15T23:13:27.844Z,5.10
2018-07-15T23:15:56.832Z,5.00
2018-07-15T23:18:25.376Z,4.53
2018-07-15T23:20:53.915Z,4.70
2018-07-15T23:23:22.460Z,5.03
2018-07-15T23:25:50.987Z,4.30
2018-07-15T23:28:19.468Z,5.20
2018-07-15T23:30:47.955Z,4.13
2018-07-15T23:33:16.414Z,3.90
2018-07-15T23:35:44.873Z,4.43
2018-07-15T23:38:13.681Z,3.90
2018-07-15T23:40:42.180Z,3.77
2018-07-15T23:43:10.706Z,3.80
2018-07-15T23:45:39.193Z,3.73
2018-07-15T23:48:07.807Z,3.90
2018-07-15T23:50:36.316Z,5.03
2018-07-15T23:53:04.830Z,4.70
2018-07-15T23:55:33.263Z,4.40
2018-07-15T23:58:01.718Z,5.30
